Potsdam, NY

44° 42' 44"N, 74° 57' 12"W, Elevation 460 ft.
Eastern Time

Hourly observations for the last 72 hours

Date Time Temperature (°F) Humi-
dity

(%)
Wind
(mph)
Pressure Rain (in) Sun
(W/m2)
ET
(in)
Air Dew 6 Hour 1 Hr 3 Hr 6 Hr Day
Alt
(in)
Sea
Level

(mb)
Max Min
22 22:00 58.0 49.4 73 SSE 0 G 3 30.23 1023.7 0.00 0 0.076
22 21:00 57.5 51.7 81 E 0 G 3 30.23 1023.7 0.00 0 0.075
22 20:00 60.1 53.6 75.6 60.1 79 E 2 G 3 30.23 1023.6 0.00 0 0.074
22 19:00 62.3 54.3 75 E 0 G 1 30.22 1023.4 0.00 0 0.073
22 18:00 65.4 54.2 67 NE 0 G 2 30.23 1023.6 0.00 0 0.073
22 17:00 71.7 55.7 57 N 1 G 2 30.23 1023.6 0.00 79 0.072
22 16:00 72.8 55.2 54 WNW 0 G 2 30.23 1023.7 0.00 90 0.069
22 15:00 74.9 52.8 46 NW 2 G 3 30.23 1023.9 0.00 181 0.065
22 14:00 74.9 51.5 76.9 49.8 44 WNW 1 G 6 30.26 1024.8 0.00 250 0.057
22 13:00 75.2 51.2 43 WSW 0 G 8 30.28 1025.4 0.00 555 0.045
22 12:00 73.2 50.0 44 WSW 1 G 7 30.29 1025.7 0.00 315 0.033
22 11:00 71.0 50.3 48 S 3 G 9 30.29 1025.8 0.00 497 0.021
22 10:00 65.6 48.0 53 S 3 G 11 30.31 1026.4 0.00 144 0.012
22 09:00 53.6 45.5 74 SE 3 G 4 30.32 1026.8 0.00 47 0.006
22 08:00 50.8 43.9 56.0 47.2 77 Calm 30.32 1026.6 0.00 21 0.005
22 07:00 55.3 42.9 63 S 1 G 9 30.31 1026.3 0.00 0 0.004
22 06:00 50.3 43.4 77 SSE 2 G 5 30.30 1026.2 0.00 0 0.003
22 05:00 49.9 44.3 81 SSE 2 G 5 30.30 1026.2 0.00 0 0.002
22 04:00 49.9 44.3 81 SSE 4 G 8 30.29 1025.7 0.00 0 0.001
22 03:00 49.2 44.9 85 SE 4 G 7 30.29 1025.7 0.00 0 0.000
22 02:00 47.4 44.9 59.0 47.3 91 Calm 30.29 1025.6 0.00 0 0.000
22 01:00 49.8 46.1 87 S 0 G 1 30.28 1025.3 0.00 0 0.000
22 00:00 51.4 47.0 85 S 1 G 5 30.28 1025.5 0.00 0 0.000
21 23:00 53.9 47.9 80 S 0 G 1 30.28 1025.4 0.00 0 0.091
21 22:00 57.8 48.1 70 S 1 G 5 30.27 1025.2 0.00 0 0.090
21 21:00 57.8 49.2 73 SSW 0 G 3 30.27 1025.1 0.00 0 0.089
21 20:00 59.0 50.0 73.3 59.0 72 SW 0 G 2 30.27 1025.0 0.00 0 0.088
21 19:00 61.7 50.2 66 W 0 G 3 30.26 1024.9 0.00 0 0.087
21 18:00 65.6 51.8 61 SW 0 G 4 30.25 1024.4 0.00 0 0.087
21 17:00 69.3 53.4 57 SW 0 G 6 30.24 1024.0 0.00 69 0.086
21 16:00 71.7 54.7 55 W 1 G 12 30.23 1023.8 0.00 188 0.083
21 15:00 71.7 54.7 55 WNW 3 G 12 30.24 1023.9 0.00 213 0.077
21 14:00 72.7 53.5 73.2 54.8 51 SW 4 G 9 30.23 1023.8 0.00 501 0.068
21 13:00 71.7 52.1 50 W 2 G 9 30.24 1024.1 0.00 415 0.055
21 12:00 69.2 50.8 52 WSW 0 G 11 30.25 1024.3 0.00 515 0.042
21 11:00 65.8 49.7 56 SSW 1 G 10 30.26 1024.7 0.00 439 0.030
21 10:00 61.6 47.1 59 WSW 2 G 12 30.26 1024.9 0.00 330 0.021
21 09:00 57.7 44.4 61 SSW 2 G 9 30.26 1024.7 0.00 51 0.015
21 08:00 54.9 42.1 55.3 53.2 62 S 3 G 10 30.25 1024.2 0.00 16 0.013
21 07:00 54.6 41.0 60 SSW 2 G 12 30.22 1023.5 0.00 0 0.012
21 06:00 54.4 40.8 60 SSW 1 G 8 30.21 1023.1 0.00 0 0.010
21 05:00 54.2 40.6 60 S 2 G 8 30.20 1022.7 0.00 0 0.009
21 04:00 54.7 40.2 58 SSW 2 G 5 30.19 1022.4 0.00 0 0.008
21 03:00 54.7 40.2 58 SSW 3 G 10 30.19 1022.4 0.00 0 0.006
21 02:00 53.4 39.9 55.1 52.8 60 S 1 G 9 30.19 1022.3 0.00 0 0.004
21 01:00 53.0 39.9 61 S 3 G 8 30.18 1021.9 0.00 0 0.002
21 00:00 52.9 40.2 62 S 3 G 7 30.17 1021.7 0.00 0 0.000
20 23:00 53.4 40.3 61 SSW 2 G 8 30.16 1021.3 0.00 0 0.092
20 22:00 53.2 40.1 61 S 2 G 9 30.15 1021.0 0.00 0 0.091
20 21:00 54.0 41.7 63 SSW 2 G 8 30.15 1021.0 0.00 0 0.089
20 20:00 55.1 42.7 64.8 55.1 63 SSW 2 G 9 30.15 1020.9 0.00 0 0.088
20 19:00 56.9 43.6 61 WSW 2 G 9 30.15 1020.9 0.00 0 0.087
20 18:00 59.6 42.9 54 WSW 1 G 5 30.13 1020.5 0.00 5 0.086
20 17:00 62.8 43.4 49 WSW 3 G 8 30.13 1020.3 0.00 146 0.085
20 16:00 63.6 44.1 49 WNW 4 G 9 30.14 1020.6 0.00 144 0.079
20 15:00 64.2 43.6 47 WSW 3 G 8 30.14 1020.6 0.00 439 0.073
20 14:00 64.0 43.4 64.0 45.4 47 WNW 4 G 12 30.14 1020.8 0.00 524 0.061
20 13:00 63.3 42.7 47 WNW 4 G 13 30.15 1021.2 0.00 559 0.048
20 12:00 60.7 43.0 52 WSW 2 G 9 30.17 1021.8 0.00 541 0.035
20 11:00 57.7 43.9 60 W 2 G 9 30.17 1021.8 0.00 469 0.024
20 10:00 54.6 43.5 66 NW 3 G 12 30.19 1022.3 0.00 357 0.015
20 09:00 49.3 42.4 77 WNW 2 G 8 30.17 1021.6 0.00 44 0.009
20 08:00 45.4 40.5 53.2 45.2 83 W 3 G 8 30.13 1020.5 0.00 14 0.008
20 07:00 45.9 40.4 81 W 1 G 6 30.11 1019.7 0.00 0 0.008
20 06:00 47.8 40.6 76 WSW 1 G 5 30.08 1018.8 0.00 0 0.007
20 05:00 48.3 40.1 73 W 1 G 9 30.05 1017.7 0.00 0 0.006
20 04:00 49.6 39.9 69 WSW 1 G 6 30.02 1016.8 0.00 0 0.005
20 03:00 51.5 40.1 65 S 1 G 5 30.03 1016.8 0.00 0 0.004
20 02:00 53.2 40.1 61.6 53.2 61 WSW 0 G 9 30.02 1016.6 0.00 0 0.003
20 01:00 54.2 39.8 58 W 1 G 6 30.01 1016.3 0.00 0 0.002
20 00:00 56.3 40.8 56 WNW 1 G 9 29.99 1015.6 0.00 0 0.000
19 23:00 58.1 44.7 61 WNW 4 G 11 29.98 1015.3 0.00 0 0.106

Data generated by WxSolution Version 1.9.0.6, Build 2017.01.14.